Map

Track Data

SID SEASON NUMBER BASIN SUBBASIN NAME ISO_TIME NATURE LAT LON WMO_WIND WMO_PRES WMO_AGENCY TRACK_TYPE DIST2LAND LANDFALL IFLAG USA_AGENCY USA_ATCF_ID USA_LAT USA_LON USA_RECORD USA_STATUS USA_WIND USA_PRES USA_SSHS USA_R34_NE USA_R34_SE USA_R34_SW USA_R34_NW USA_R50_NE USA_R50_SE USA_R50_SW USA_R50_NW USA_R64_NE USA_R64_SE USA_R64_SW USA_R64_NW USA_POCI USA_ROCI USA_RMW USA_EYE TOKYO_LAT TOKYO_LON TOKYO_GRADE TOKYO_WIND TOKYO_PRES TOKYO_R50_DIR TOKYO_R50_LONG TOKYO_R50_SHORT TOKYO_R30_DIR TOKYO_R30_LONG TOKYO_R30_SHORT TOKYO_LAND CMA_LAT CMA_LON CMA_CAT CMA_WIND CMA_PRES HKO_LAT HKO_LON HKO_CAT HKO_WIND HKO_PRES NEWDELHI_LAT NEWDELHI_LON NEWDELHI_GRADE NEWDELHI_WIND NEWDELHI_PRES NEWDELHI_CI NEWDELHI_DP NEWDELHI_POCI REUNION_LAT REUNION_LON REUNION_TYPE REUNION_WIND REUNION_PRES REUNION_TNUM REUNION_CI REUNION_RMW REUNION_R34_NE REUNION_R34_SE REUNION_R34_SW REUNION_R34_NW REUNION_R50_NE REUNION_R50_SE REUNION_R50_SW REUNION_R50_NW REUNION_R64_NE REUNION_R64_SE REUNION_R64_SW REUNION_R64_NW BOM_LAT BOM_LON BOM_TYPE BOM_WIND BOM_PRES BOM_TNUM BOM_CI BOM_RMW BOM_R34_NE BOM_R34_SE BOM_R34_SW BOM_R34_NW BOM_R50_NE BOM_R50_SE BOM_R50_SW BOM_R50_NW BOM_R64_NE BOM_R64_SE BOM_R64_SW BOM_R64_NW BOM_ROCI BOM_POCI BOM_EYE BOM_POS_METHOD BOM_PRES_METHOD NADI_LAT NADI_LON NADI_CAT NADI_WIND NADI_PRES WELLINGTON_LAT WELLINGTON_LON WELLINGTON_WIND WELLINGTON_PRES DS824_LAT DS824_LON DS824_STAGE DS824_WIND DS824_PRES TD9636_LAT TD9636_LON TD9636_STAGE TD9636_WIND TD9636_PRES TD9635_LAT TD9635_LON TD9635_WIND TD9635_PRES TD9635_ROCI NEUMANN_LAT NEUMANN_LON NEUMANN_CLASS NEUMANN_WIND NEUMANN_PRES MLC_LAT MLC_LON MLC_CLASS MLC_WIND MLC_PRES USA_GUST BOM_GUST BOM_GUST_PER REUNION_GUST REUNION_GUST_PER USA_SEAHGT USA_SEARAD_NE USA_SEARAD_SE USA_SEARAD_SW USA_SEARAD_NW STORM_SPEED STORM_DIR
1989227N12236 1989 78 EP MM HENRIETTE 1989-08-14 18:00:00 NR 12.4000 -123.700 main 1838 1838 O_____________ jtwc_ep EP121989 12.4000 -123.700 25 -1 15 286
1989227N12236 1989 78 EP MM HENRIETTE 1989-08-14 21:00:00 NR 12.6080 -124.422 main 1871 1871 P_____________ EP121989 12.6080 -124.422 27 -1 15 290
1989227N12236 1989 78 EP MM HENRIETTE 1989-08-15 00:00:00 TS 12.9000 -125.100 30 1009 hurdat_epa main 1898 1897 O_________O___ hurdat_epa EP111989 12.9000 -125.100 TD 30 1009 -1 12.9000 -125.100 1 30 15 300
1989227N12236 1989 78 EP MM HENRIETTE 1989-08-15 03:00:00 TS 13.3436 -125.704 main 1912 1904 P_________P___ EP111989 13.3272 -125.708 TD 30 1009 -1 13.3482 -125.736 1 31 15 307
1989227N12236 1989 78 EP MM HENRIETTE 1989-08-15 06:00:00 TS 13.7969 -126.316 30 1009 hurdat_epa main 1921 1921 O_________P___ hurdat_epa EP111989 13.8000 -126.300 TD 30 1009 -1 13.7865 -126.368 1 32 15 305
1989227N12236 1989 78 EP MM HENRIETTE 1989-08-15 09:00:00 TS 14.2129 -126.966 main 1949 1942 P_________P___ EP111989 14.2150 -126.958 TD 32 1007 -1 14.2065 -126.991 1 33 15 303
1989227N12236 1989 78 EP MM HENRIETTE 1989-08-15 12:00:00 TS 14.6000 -127.600 35 1005 hurdat_epa main 1959 1957 O_________O___ hurdat_epa EP111989 14.6000 -127.600 TS 35 1005 0 14.6000 -127.600 2 35 14 303
1989227N12236 1989 78 EP MM HENRIETTE 1989-08-15 15:00:00 TS 14.9638 -128.166 main 1967 1966 P_________P___ EP111989 14.9647 -128.158 TS 35 1005 0 14.9612 -128.190 2 36 13 303
1989227N12236 1989 78 EP MM HENRIETTE 1989-08-15 18:00:00 TS 15.2985 -128.716 35 1005 hurdat_epa main 1979 1978 O_________P___ hurdat_epa EP111989 15.3000 -128.700 TS 35 1005 0 15.2941 -128.766 2 37 13 301
1989227N12236 1989 78 EP MM HENRIETTE 1989-08-15 21:00:00 TS 15.6124 -129.303 main 1999 1999 P_________P___ EP111989 15.6149 -129.293 TS 37 1004 0 15.6050 -129.334 2 38 13 298
1989227N12236 1989 78 EP MM HENRIETTE 1989-08-16 00:00:00 TS 15.9000 -129.900 40 1003 hurdat_epa main 2022 2022 O_________O___ hurdat_epa EP111989 15.9000 -129.900 TS 40 1003 0 15.9000 -129.900 2 40 13 295
1989227N12236 1989 78 EP MM HENRIETTE 1989-08-16 03:00:00 TS 16.1597 -130.502 main 2047 2047 P_________P___ EP111989 16.1499 -130.508 TS 40 1002 0 16.1890 -130.484 2 41 13 294
1989227N12236 1989 78 EP MM HENRIETTE 1989-08-16 06:00:00 TS 16.4161 -131.091 40 1002 hurdat_epa main 2081 2081 O_________P___ hurdat_epa EP111989 16.4000 -131.100 TS 40 1002 0 16.4646 -131.066 2 42 12 296
1989227N12236 1989 78 EP MM HENRIETTE 1989-08-16 09:00:00 TS 16.7081 -131.659 main 2109 2109 P_________P___ EP111989 16.6999 -131.665 TS 42 1001 0 16.7328 -131.640 2 43 12 299
1989227N12236 1989 78 EP MM HENRIETTE 1989-08-16 12:00:00 TS 17.0000 -132.200 45 1000 hurdat_epa main 2130 2130 O_________O___ hurdat_epa EP111989 17.0000 -132.200 TS 45 1000 0 17.0000 -132.200 2 45 11 299
1989227N12236 1989 78 EP MM HENRIETTE 1989-08-16 15:00:00 TS 17.2579 -132.710 main 2153 2153 P_________P___ EP111989 17.2498 -132.700 TS 45 1000 0 17.2825 -132.740 2 45 11 298
1989227N12236 1989 78 EP MM HENRIETTE 1989-08-16 18:00:00 TS 17.5160 -133.216 45 1001 hurdat_epa main 2183 2183 O_________P___ hurdat_epa EP111989 17.5000 -133.200 TS 45 1001 0 17.5642 -133.265 2 45 11 299
1989227N12236 1989 78 EP MM HENRIETTE 1989-08-16 21:00:00 TS 17.8097 -133.758 main 2217 2162 P_________P___ EP111989 17.8000 -133.750 TS 45 1001 0 17.8388 -133.783 2 45 12 300
1989227N12236 1989 78 EP MM HENRIETTE 1989-08-17 00:00:00 TS 18.1000 -134.300 45 1002 hurdat_epa main 2162 2107 O_________O___ hurdat_epa EP111989 18.1000 -134.300 TS 45 1002 0 18.1000 -134.300 2 45 11 299
1989227N12236 1989 78 EP MM HENRIETTE 1989-08-17 03:00:00 TS 18.3634 -134.810 main 2105 2051 P_________P___ EP111989 18.3647 -134.800 TS 42 1003 0 18.3595 -134.841 2 41 11 297
1989227N12236 1989 78 EP MM HENRIETTE 1989-08-17 06:00:00 TS 18.6006 -135.320 40 1005 hurdat_epa main 2051 1996 O_________P___ hurdat_epa EP111989 18.6000 -135.300 TS 40 1005 0 18.6024 -135.380 2 37 11 295
1989227N12236 1989 78 EP MM HENRIETTE 1989-08-17 09:00:00 TS 18.8216 -135.869 main 1985 1931 P_________P___ EP111989 18.8225 -135.857 TS 35 1005 0 18.8190 -135.904 2 33 11 291
1989227N12236 1989 78 EP MM HENRIETTE 1989-08-17 12:00:00 TS 19.0000 -136.400 30 1006 hurdat_epa main 1931 1888 O_________O___ hurdat_epa EP111989 19.0000 -136.400 TD 30 1006 -1 19.0000 -136.400 1 30 10 288
1989227N12236 1989 78 EP MM HENRIETTE 1989-08-17 15:00:00 TS 19.1210 -136.870 main 1878 1835 P_________P___ EP111989 19.1148 -136.873 TD 30 1007 -1 19.1396 -136.860 1 28 9 284
1989227N12236 1989 78 EP MM HENRIETTE 1989-08-17 18:00:00 TS 19.2113 -137.298 30 1009 hurdat_epa main 1835 1792 O_________P___ hurdat_epa EP111989 19.2000 -137.300 TD 30 1009 -1 19.2454 -137.290 1 26 8 283
1989227N12236 1989 78 EP MM HENRIETTE 1989-08-17 21:00:00 TS 19.3035 -137.704 main 1792 1750 P_________P___ EP111989 19.2952 -137.705 TD 25 1009 -1 19.3286 -137.700 1 24 8 284
1989227N12236 1989 78 EP MM HENRIETTE 1989-08-18 00:00:00 TS 19.4000 -138.100 20 1010 hurdat_epa main 1750 O_________O___ hurdat_epa EP111989 19.4000 -138.100 TD 20 1010 -1 19.4000 -138.100 1 22 8 284

About IBTrACS Database

This database is a web-friendly format of International Best Track Archive for Climate Stewardship (IBTrACS), a global best track data archive curated by NOAA dating back to 1842.

Updated: 2021-10-08